sensor_id;sensor_type;location;lat;lon;timestamp;P1;durP1;ratioP1;P2;durP2;ratioP2
60239;SDS011;46102;39.012;-7.064;2022-09-12T00:01:25;5.50;;;0.50;;
60239;SDS011;46102;39.012;-7.064;2022-09-12T00:03:26;0.47;;;0.40;;
60239;SDS011;46102;39.012;-7.064;2022-09-12T00:05:26;2.15;;;0.70;;
60239;SDS011;46102;39.012;-7.064;2022-09-12T00:07:27;0.50;;;0.50;;
60239;SDS011;46102;39.012;-7.064;2022-09-12T00:09:28;3.10;;;0.47;;
60239;SDS011;46102;39.012;-7.064;2022-09-12T00:11:29;0.88;;;0.30;;
60239;SDS011;46102;39.012;-7.064;2022-09-12T00:13:30;2.28;;;0.55;;
60239;SDS011;46102;39.012;-7.064;2022-09-12T00:15:31;1.58;;;0.52;;
60239;SDS011;46102;39.012;-7.064;2022-09-12T00:17:36;1.23;;;0.55;;
60239;SDS011;46102;39.012;-7.064;2022-09-12T00:19:37;0.95;;;0.40;;
60239;SDS011;46102;39.012;-7.064;2022-09-12T00:21:38;1.85;;;0.40;;
60239;SDS011;46102;39.012;-7.064;2022-09-12T00:23:40;1.05;;;0.45;;
60239;SDS011;46102;39.012;-7.064;2022-09-12T00:25:41;2.95;;;0.88;;
60239;SDS011;46102;39.012;-7.064;2022-09-12T00:27:43;2.13;;;0.70;;
60239;SDS011;46102;39.012;-7.064;2022-09-12T00:29:43;1.77;;;0.40;;
60239;SDS011;46102;39.012;-7.064;2022-09-12T00:31:44;4.03;;;0.50;;
60239;SDS011;46102;39.012;-7.064;2022-09-12T00:33:45;0.40;;;0.30;;
60239;SDS011;46102;39.012;-7.064;2022-09-12T00:35:48;3.90;;;0.35;;
60239;SDS011;46102;39.012;-7.064;2022-09-12T00:37:52;6.57;;;0.90;;
60239;SDS011;46102;39.012;-7.064;2022-09-12T00:39:52;1.98;;;0.35;;
60239;SDS011;46102;39.012;-7.064;2022-09-12T00:41:53;2.05;;;0.45;;
60239;SDS011;46102;39.012;-7.064;2022-09-12T00:43:55;1.00;;;0.50;;
60239;SDS011;46102;39.012;-7.064;2022-09-12T00:46:00;2.28;;;0.52;;
60239;SDS011;46102;39.012;-7.064;2022-09-12T00:48:04;4.38;;;0.40;;
60239;SDS011;46102;39.012;-7.064;2022-09-12T00:52:12;1.58;;;0.40;;
60239;SDS011;46102;39.012;-7.064;2022-09-12T00:54:16;5.20;;;0.50;;
60239;SDS011;46102;39.012;-7.064;2022-09-12T00:56:21;2.65;;;0.43;;
60239;SDS011;46102;39.012;-7.064;2022-09-12T00:58:28;2.83;;;0.43;;
60239;SDS011;46102;39.012;-7.064;2022-09-12T01:00:35;0.98;;;0.38;;
60239;SDS011;46102;39.012;-7.064;2022-09-12T01:02:36;3.13;;;0.50;;
60239;SDS011;46102;39.012;-7.064;2022-09-12T01:04:37;4.10;;;0.60;;
60239;SDS011;46102;39.012;-7.064;2022-09-12T01:06:40;2.90;;;0.40;;
60239;SDS011;46102;39.012;-7.064;2022-09-12T01:08:42;2.33;;;0.50;;
60239;SDS011;46102;39.012;-7.064;2022-09-12T01:10:45;0.50;;;0.50;;
60239;SDS011;46102;39.012;-7.064;2022-09-12T01:12:47;3.15;;;0.47;;
60239;SDS011;46102;39.012;-7.064;2022-09-12T01:14:48;1.30;;;0.40;;
60239;SDS011;46102;39.012;-7.064;2022-09-12T01:16:49;6.10;;;0.40;;
60239;SDS011;46102;39.012;-7.064;2022-09-12T01:29:13;50.45;;;19.95;;
60239;SDS011;46102;39.012;-7.064;2022-09-12T01:31:43;52.35;;;26.23;;
60239;SDS011;46102;39.012;-7.064;2022-09-12T01:34:09;65.05;;;31.98;;
60239;SDS011;46102;39.012;-7.064;2022-09-12T01:36:30;59.83;;;31.65;;
60239;SDS011;46102;39.012;-7.064;2022-09-12T01:38:53;38.13;;;20.05;;
60239;SDS011;46102;39.012;-7.064;2022-09-12T01:43:30;6.75;;;4.65;;
60239;SDS011;46102;39.012;-7.064;2022-09-12T01:45:46;5.18;;;2.40;;
60239;SDS011;46102;39.012;-7.064;2022-09-12T01:48:07;7.03;;;0.93;;
60239;SDS011;46102;39.012;-7.064;2022-09-12T01:50:31;7.95;;;0.77;;
60239;SDS011;46102;39.012;-7.064;2022-09-12T01:52:41;2.85;;;0.70;;
60239;SDS011;46102;39.012;-7.064;2022-09-12T01:54:55;5.82;;;0.75;;
60239;SDS011;46102;39.012;-7.064;2022-09-12T01:59:07;4.13;;;0.60;;
60239;SDS011;46102;39.012;-7.064;2022-09-12T02:01:15;1.95;;;0.55;;
60239;SDS011;46102;39.012;-7.064;2022-09-12T02:03:25;4.68;;;0.50;;
60239;SDS011;46102;39.012;-7.064;2022-09-12T02:05:32;6.25;;;0.90;;
60239;SDS011;46102;39.012;-7.064;2022-09-12T02:07:41;5.65;;;0.90;;
60239;SDS011;46102;39.012;-7.064;2022-09-12T02:12:07;1.30;;;0.47;;
60239;SDS011;46102;39.012;-7.064;2022-09-12T02:14:17;11.38;;;1.05;;
60239;SDS011;46102;39.012;-7.064;2022-09-12T02:18:24;0.77;;;0.40;;
60239;SDS011;46102;39.012;-7.064;2022-09-12T02:20:28;5.88;;;0.70;;
60239;SDS011;46102;39.012;-7.064;2022-09-12T02:22:38;2.25;;;0.50;;
60239;SDS011;46102;39.012;-7.064;2022-09-12T02:24:54;2.88;;;0.60;;
60239;SDS011;46102;39.012;-7.064;2022-09-12T02:26:59;3.00;;;0.60;;
60239;SDS011;46102;39.012;-7.064;2022-09-12T02:29:05;5.22;;;0.70;;
60239;SDS011;46102;39.012;-7.064;2022-09-12T02:33:26;4.78;;;1.00;;
60239;SDS011;46102;39.012;-7.064;2022-09-12T02:35:42;1.48;;;0.90;;
60239;SDS011;46102;39.012;-7.064;2022-09-12T02:40:00;4.53;;;0.80;;
60239;SDS011;46102;39.012;-7.064;2022-09-12T02:42:01;0.77;;;0.40;;
60239;SDS011;46102;39.012;-7.064;2022-09-12T02:44:03;2.35;;;0.90;;
60239;SDS011;46102;39.012;-7.064;2022-09-12T02:46:09;5.50;;;0.75;;
60239;SDS011;46102;39.012;-7.064;2022-09-12T02:48:17;0.90;;;0.60;;
60239;SDS011;46102;39.012;-7.064;2022-09-12T02:50:22;11.05;;;0.80;;
60239;SDS011;46102;39.012;-7.064;2022-09-12T02:52:23;3.40;;;0.73;;
60239;SDS011;46102;39.012;-7.064;2022-09-12T02:54:29;4.25;;;0.70;;
60239;SDS011;46102;39.012;-7.064;2022-09-12T02:56:41;1.20;;;0.60;;
60239;SDS011;46102;39.012;-7.064;2022-09-12T02:58:43;0.52;;;0.50;;
60239;SDS011;46102;39.012;-7.064;2022-09-12T03:00:50;2.92;;;0.70;;
60239;SDS011;46102;39.012;-7.064;2022-09-12T03:05:23;0.77;;;0.50;;
60239;SDS011;46102;39.012;-7.064;2022-09-12T03:07:32;2.45;;;0.50;;
60239;SDS011;46102;39.012;-7.064;2022-09-12T03:12:06;4.95;;;0.98;;
60239;SDS011;46102;39.012;-7.064;2022-09-12T03:14:30;8.02;;;1.08;;
60239;SDS011;46102;39.012;-7.064;2022-09-12T03:16:55;2.83;;;0.90;;
60239;SDS011;46102;39.012;-7.064;2022-09-12T03:21:32;1.65;;;0.93;;
60239;SDS011;46102;39.012;-7.064;2022-09-12T03:26:23;5.07;;;0.60;;
60239;SDS011;46102;39.012;-7.064;2022-09-12T03:28:28;5.15;;;1.00;;
60239;SDS011;46102;39.012;-7.064;2022-09-12T03:30:30;2.25;;;0.50;;
60239;SDS011;46102;39.012;-7.064;2022-09-12T03:32:44;1.10;;;0.30;;
60239;SDS011;46102;39.012;-7.064;2022-09-12T03:34:50;2.85;;;0.40;;
60239;SDS011;46102;39.012;-7.064;2022-09-12T03:36:51;2.72;;;0.63;;
60239;SDS011;46102;39.012;-7.064;2022-09-12T03:38:54;5.72;;;0.95;;
60239;SDS011;46102;39.012;-7.064;2022-09-12T03:40:55;3.78;;;0.70;;
60239;SDS011;46102;39.012;-7.064;2022-09-12T03:42:56;1.60;;;0.68;;
60239;SDS011;46102;39.012;-7.064;2022-09-12T03:44:57;0.70;;;0.50;;
60239;SDS011;46102;39.012;-7.064;2022-09-12T03:46:57;0.93;;;0.35;;
60239;SDS011;46102;39.012;-7.064;2022-09-12T03:48:58;5.53;;;0.70;;
60239;SDS011;46102;39.012;-7.064;2022-09-12T03:51:02;6.68;;;0.70;;
60239;SDS011;46102;39.012;-7.064;2022-09-12T03:53:05;2.08;;;0.40;;
60239;SDS011;46102;39.012;-7.064;2022-09-12T03:55:06;1.75;;;0.43;;
60239;SDS011;46102;39.012;-7.064;2022-09-12T03:57:07;1.10;;;0.60;;
60239;SDS011;46102;39.012;-7.064;2022-09-12T03:59:08;1.45;;;0.88;;
60239;SDS011;46102;39.012;-7.064;2022-09-12T04:01:09;4.00;;;0.68;;
60239;SDS011;46102;39.012;-7.064;2022-09-12T04:03:11;1.90;;;0.30;;
60239;SDS011;46102;39.012;-7.064;2022-09-12T04:05:12;0.40;;;0.40;;
60239;SDS011;46102;39.012;-7.064;2022-09-12T04:07:14;6.35;;;0.88;;
60239;SDS011;46102;39.012;-7.064;2022-09-12T04:09:15;0.93;;;0.55;;
60239;SDS011;46102;39.012;-7.064;2022-09-12T04:11:16;1.90;;;0.40;;
60239;SDS011;46102;39.012;-7.064;2022-09-12T04:13:18;2.50;;;0.47;;
60239;SDS011;46102;39.012;-7.064;2022-09-12T04:15:19;0.68;;;0.40;;
60239;SDS011;46102;39.012;-7.064;2022-09-12T04:17:20;3.80;;;0.50;;
60239;SDS011;46102;39.012;-7.064;2022-09-12T04:19:21;2.20;;;0.75;;
60239;SDS011;46102;39.012;-7.064;2022-09-12T04:21:22;2.03;;;0.60;;
60239;SDS011;46102;39.012;-7.064;2022-09-12T04:23:23;1.35;;;1.15;;
60239;SDS011;46102;39.012;-7.064;2022-09-12T04:25:24;1.48;;;0.45;;
60239;SDS011;46102;39.012;-7.064;2022-09-12T04:27:27;2.10;;;0.73;;
60239;SDS011;46102;39.012;-7.064;2022-09-12T04:29:28;2.30;;;0.57;;
60239;SDS011;46102;39.012;-7.064;2022-09-12T04:31:30;1.55;;;0.60;;
60239;SDS011;46102;39.012;-7.064;2022-09-12T04:33:31;5.90;;;0.75;;
60239;SDS011;46102;39.012;-7.064;2022-09-12T04:35:33;3.58;;;1.00;;
60239;SDS011;46102;39.012;-7.064;2022-09-12T04:37:35;1.88;;;0.40;;
60239;SDS011;46102;39.012;-7.064;2022-09-12T04:39:35;4.68;;;0.55;;
60239;SDS011;46102;39.012;-7.064;2022-09-12T04:41:37;4.63;;;0.57;;
60239;SDS011;46102;39.012;-7.064;2022-09-12T04:43:39;3.47;;;0.70;;
60239;SDS011;46102;39.012;-7.064;2022-09-12T04:45:41;1.40;;;0.50;;
60239;SDS011;46102;39.012;-7.064;2022-09-12T04:47:41;2.10;;;0.68;;
60239;SDS011;46102;39.012;-7.064;2022-09-12T04:49:42;5.30;;;0.50;;
60239;SDS011;46102;39.012;-7.064;2022-09-12T04:51:43;1.35;;;0.68;;
60239;SDS011;46102;39.012;-7.064;2022-09-12T04:53:46;1.58;;;0.50;;
60239;SDS011;46102;39.012;-7.064;2022-09-12T04:55:48;2.65;;;0.30;;
60239;SDS011;46102;39.012;-7.064;2022-09-12T04:57:49;0.93;;;0.50;;
60239;SDS011;46102;39.012;-7.064;2022-09-12T04:59:49;1.02;;;0.57;;
60239;SDS011;46102;39.012;-7.064;2022-09-12T05:01:50;1.88;;;0.50;;
60239;SDS011;46102;39.012;-7.064;2022-09-12T05:03:51;2.55;;;0.82;;
60239;SDS011;46102;39.012;-7.064;2022-09-12T05:05:51;1.42;;;0.50;;
60239;SDS011;46102;39.012;-7.064;2022-09-12T05:07:52;0.93;;;0.30;;
60239;SDS011;46102;39.012;-7.064;2022-09-12T05:09:53;0.60;;;0.55;;
60239;SDS011;46102;39.012;-7.064;2022-09-12T05:11:54;2.22;;;0.40;;
60239;SDS011;46102;39.012;-7.064;2022-09-12T05:13:55;3.65;;;0.47;;
60239;SDS011;46102;39.012;-7.064;2022-09-12T05:15:56;3.42;;;0.80;;
60239;SDS011;46102;39.012;-7.064;2022-09-12T05:17:58;11.60;;;0.98;;
60239;SDS011;46102;39.012;-7.064;2022-09-12T05:19:59;2.85;;;0.82;;
60239;SDS011;46102;39.012;-7.064;2022-09-12T05:22:00;3.33;;;0.70;;
60239;SDS011;46102;39.012;-7.064;2022-09-12T05:24:00;3.38;;;0.50;;
60239;SDS011;46102;39.012;-7.064;2022-09-12T05:26:02;5.95;;;0.60;;
60239;SDS011;46102;39.012;-7.064;2022-09-12T05:28:04;3.03;;;1.13;;
60239;SDS011;46102;39.012;-7.064;2022-09-12T05:30:05;4.53;;;0.40;;
60239;SDS011;46102;39.012;-7.064;2022-09-12T05:32:06;2.67;;;0.70;;
60239;SDS011;46102;39.012;-7.064;2022-09-12T05:34:08;2.05;;;0.68;;
60239;SDS011;46102;39.012;-7.064;2022-09-12T05:36:10;3.13;;;0.60;;
60239;SDS011;46102;39.012;-7.064;2022-09-12T05:40:14;1.15;;;0.57;;
60239;SDS011;46102;39.012;-7.064;2022-09-12T05:42:16;2.28;;;0.50;;
60239;SDS011;46102;39.012;-7.064;2022-09-12T05:44:17;5.78;;;0.60;;
60239;SDS011;46102;39.012;-7.064;2022-09-12T05:46:19;1.27;;;0.50;;
60239;SDS011;46102;39.012;-7.064;2022-09-12T05:48:22;3.55;;;0.68;;
60239;SDS011;46102;39.012;-7.064;2022-09-12T05:50:23;1.95;;;1.42;;
60239;SDS011;46102;39.012;-7.064;2022-09-12T05:52:24;1.58;;;0.65;;
60239;SDS011;46102;39.012;-7.064;2022-09-12T05:54:25;1.40;;;0.60;;
60239;SDS011;46102;39.012;-7.064;2022-09-12T05:56:28;1.30;;;0.63;;
60239;SDS011;46102;39.012;-7.064;2022-09-12T05:58:29;5.35;;;0.80;;
60239;SDS011;46102;39.012;-7.064;2022-09-12T06:00:30;2.17;;;0.70;;
60239;SDS011;46102;39.012;-7.064;2022-09-12T06:02:31;2.67;;;0.60;;
60239;SDS011;46102;39.012;-7.064;2022-09-12T06:04:32;2.45;;;0.70;;
60239;SDS011;46102;39.012;-7.064;2022-09-12T06:06:37;1.55;;;0.65;;
60239;SDS011;46102;39.012;-7.064;2022-09-12T06:08:41;2.35;;;0.73;;
60239;SDS011;46102;39.012;-7.064;2022-09-12T06:10:44;2.47;;;1.00;;
60239;SDS011;46102;39.012;-7.064;2022-09-12T06:12:44;2.00;;;0.70;;
60239;SDS011;46102;39.012;-7.064;2022-09-12T06:14:45;1.92;;;1.08;;
60239;SDS011;46102;39.012;-7.064;2022-09-12T06:16:46;4.50;;;0.85;;
60239;SDS011;46102;39.012;-7.064;2022-09-12T06:18:49;0.82;;;0.57;;
60239;SDS011;46102;39.012;-7.064;2022-09-12T06:20:51;2.17;;;0.60;;
60239;SDS011;46102;39.012;-7.064;2022-09-12T06:22:52;3.03;;;0.80;;
60239;SDS011;46102;39.012;-7.064;2022-09-12T06:24:53;3.75;;;1.60;;
60239;SDS011;46102;39.012;-7.064;2022-09-12T06:26:53;2.78;;;0.90;;
60239;SDS011;46102;39.012;-7.064;2022-09-12T06:28:55;0.80;;;0.77;;
60239;SDS011;46102;39.012;-7.064;2022-09-12T06:31:00;2.15;;;0.68;;
60239;SDS011;46102;39.012;-7.064;2022-09-12T06:33:05;3.00;;;1.45;;
60239;SDS011;46102;39.012;-7.064;2022-09-12T06:35:06;3.72;;;0.98;;
60239;SDS011;46102;39.012;-7.064;2022-09-12T06:37:07;16.77;;;1.08;;
60239;SDS011;46102;39.012;-7.064;2022-09-12T06:39:15;1.98;;;0.95;;
60239;SDS011;46102;39.012;-7.064;2022-09-12T06:41:17;2.60;;;1.05;;
60239;SDS011;46102;39.012;-7.064;2022-09-12T06:43:17;2.47;;;0.90;;
60239;SDS011;46102;39.012;-7.064;2022-09-12T06:45:19;2.28;;;1.40;;
60239;SDS011;46102;39.012;-7.064;2022-09-12T06:47:20;1.63;;;1.23;;
60239;SDS011;46102;39.012;-7.064;2022-09-12T06:49:21;8.20;;;1.60;;
60239;SDS011;46102;39.012;-7.064;2022-09-12T06:51:22;3.20;;;1.20;;
60239;SDS011;46102;39.012;-7.064;2022-09-12T06:53:23;1.30;;;1.13;;
60239;SDS011;46102;39.012;-7.064;2022-09-12T06:55:25;3.47;;;1.00;;
60239;SDS011;46102;39.012;-7.064;2022-09-12T06:57:25;7.35;;;0.85;;
60239;SDS011;46102;39.012;-7.064;2022-09-12T06:59:29;2.88;;;1.20;;
60239;SDS011;46102;39.012;-7.064;2022-09-12T07:01:30;2.58;;;1.15;;
60239;SDS011;46102;39.012;-7.064;2022-09-12T07:03:32;2.97;;;1.05;;
60239;SDS011;46102;39.012;-7.064;2022-09-12T07:05:34;2.83;;;0.68;;
60239;SDS011;46102;39.012;-7.064;2022-09-12T07:07:34;2.67;;;0.80;;
60239;SDS011;46102;39.012;-7.064;2022-09-12T07:09:35;2.30;;;1.00;;
60239;SDS011;46102;39.012;-7.064;2022-09-12T07:11:37;7.90;;;0.90;;
60239;SDS011;46102;39.012;-7.064;2022-09-12T07:13:38;1.05;;;0.80;;
60239;SDS011;46102;39.012;-7.064;2022-09-12T07:15:40;2.00;;;0.90;;
60239;SDS011;46102;39.012;-7.064;2022-09-12T07:17:41;4.60;;;0.90;;
60239;SDS011;46102;39.012;-7.064;2022-09-12T07:19:42;5.80;;;1.38;;
60239;SDS011;46102;39.012;-7.064;2022-09-12T07:21:42;0.85;;;0.85;;
60239;SDS011;46102;39.012;-7.064;2022-09-12T07:23:43;4.53;;;0.63;;
60239;SDS011;46102;39.012;-7.064;2022-09-12T07:25:51;2.22;;;0.70;;
60239;SDS011;46102;39.012;-7.064;2022-09-12T07:27:52;4.20;;;1.27;;
60239;SDS011;46102;39.012;-7.064;2022-09-12T07:29:54;2.33;;;0.90;;
60239;SDS011;46102;39.012;-7.064;2022-09-12T07:31:55;1.63;;;0.80;;
60239;SDS011;46102;39.012;-7.064;2022-09-12T07:33:56;2.90;;;0.55;;
60239;SDS011;46102;39.012;-7.064;2022-09-12T07:36:00;1.40;;;0.70;;
60239;SDS011;46102;39.012;-7.064;2022-09-12T07:38:03;5.20;;;0.75;;
60239;SDS011;46102;39.012;-7.064;2022-09-12T07:40:04;4.97;;;0.98;;
60239;SDS011;46102;39.012;-7.064;2022-09-12T07:42:05;3.13;;;1.15;;
60239;SDS011;46102;39.012;-7.064;2022-09-12T07:44:06;3.30;;;0.88;;
60239;SDS011;46102;39.012;-7.064;2022-09-12T07:46:07;3.35;;;0.65;;
60239;SDS011;46102;39.012;-7.064;2022-09-12T07:48:08;2.47;;;1.13;;
60239;SDS011;46102;39.012;-7.064;2022-09-12T07:50:09;4.22;;;1.40;;
60239;SDS011;46102;39.012;-7.064;2022-09-12T07:52:10;4.70;;;0.90;;
60239;SDS011;46102;39.012;-7.064;2022-09-12T07:54:11;3.22;;;0.90;;
60239;SDS011;46102;39.012;-7.064;2022-09-12T07:56:12;7.90;;;1.02;;
60239;SDS011;46102;39.012;-7.064;2022-09-12T07:58:13;1.88;;;0.93;;
60239;SDS011;46102;39.012;-7.064;2022-09-12T08:00:14;10.55;;;1.15;;
60239;SDS011;46102;39.012;-7.064;2022-09-12T08:02:16;3.03;;;0.63;;
60239;SDS011;46102;39.012;-7.064;2022-09-12T08:04:17;3.40;;;0.90;;
60239;SDS011;46102;39.012;-7.064;2022-09-12T08:06:18;0.82;;;0.80;;
60239;SDS011;46102;39.012;-7.064;2022-09-12T08:08:20;1.48;;;1.00;;
60239;SDS011;46102;39.012;-7.064;2022-09-12T08:10:21;8.48;;;1.13;;
60239;SDS011;46102;39.012;-7.064;2022-09-12T08:12:22;8.25;;;1.45;;
60239;SDS011;46102;39.012;-7.064;2022-09-12T08:14:23;5.72;;;1.25;;
60239;SDS011;46102;39.012;-7.064;2022-09-12T08:16:24;12.30;;;2.03;;
60239;SDS011;46102;39.012;-7.064;2022-09-12T08:18:27;16.73;;;6.13;;
60239;SDS011;46102;39.012;-7.064;2022-09-12T08:20:29;28.60;;;9.90;;
60239;SDS011;46102;39.012;-7.064;2022-09-12T08:22:30;45.40;;;11.57;;
60239;SDS011;46102;39.012;-7.064;2022-09-12T08:24:31;24.25;;;5.78;;
60239;SDS011;46102;39.012;-7.064;2022-09-12T08:26:32;13.82;;;4.38;;
60239;SDS011;46102;39.012;-7.064;2022-09-12T08:28:34;10.70;;;6.35;;
60239;SDS011;46102;39.012;-7.064;2022-09-12T08:30:35;18.45;;;8.88;;
60239;SDS011;46102;39.012;-7.064;2022-09-12T08:32:37;18.80;;;9.60;;
60239;SDS011;46102;39.012;-7.064;2022-09-12T08:34:37;47.17;;;19.30;;
60239;SDS011;46102;39.012;-7.064;2022-09-12T08:36:40;30.88;;;14.32;;
60239;SDS011;46102;39.012;-7.064;2022-09-12T08:38:42;25.25;;;12.32;;
60239;SDS011;46102;39.012;-7.064;2022-09-12T08:40:52;24.00;;;6.27;;
60239;SDS011;46102;39.012;-7.064;2022-09-12T08:43:07;15.75;;;6.93;;
60239;SDS011;46102;39.012;-7.064;2022-09-12T08:45:26;17.60;;;6.78;;
60239;SDS011;46102;39.012;-7.064;2022-09-12T08:49:40;8.00;;;2.90;;
60239;SDS011;46102;39.012;-7.064;2022-09-12T08:51:48;14.43;;;5.20;;
60239;SDS011;46102;39.012;-7.064;2022-09-12T08:53:50;18.85;;;6.95;;
60239;SDS011;46102;39.012;-7.064;2022-09-12T08:55:56;21.67;;;11.25;;
60239;SDS011;46102;39.012;-7.064;2022-09-12T08:57:59;12.85;;;5.28;;
60239;SDS011;46102;39.012;-7.064;2022-09-12T09:00:11;7.22;;;3.35;;
60239;SDS011;46102;39.012;-7.064;2022-09-12T09:02:23;10.32;;;3.38;;
60239;SDS011;46102;39.012;-7.064;2022-09-12T09:04:49;12.35;;;3.05;;
60239;SDS011;46102;39.012;-7.064;2022-09-12T09:16:49;13.38;;;1.77;;
60239;SDS011;46102;39.012;-7.064;2022-09-12T09:18:52;8.98;;;3.45;;
60239;SDS011;46102;39.012;-7.064;2022-09-12T09:23:12;15.15;;;3.80;;
60239;SDS011;46102;39.012;-7.064;2022-09-12T09:25:19;11.75;;;3.50;;
60239;SDS011;46102;39.012;-7.064;2022-09-12T09:27:35;17.75;;;3.30;;
60239;SDS011;46102;39.012;-7.064;2022-09-12T09:29:42;6.85;;;2.53;;
60239;SDS011;46102;39.012;-7.064;2022-09-12T09:31:47;13.98;;;1.73;;
60239;SDS011;46102;39.012;-7.064;2022-09-12T09:33:52;6.38;;;1.70;;
60239;SDS011;46102;39.012;-7.064;2022-09-12T09:35:55;5.23;;;1.50;;
60239;SDS011;46102;39.012;-7.064;2022-09-12T09:40:40;15.07;;;1.90;;
60239;SDS011;46102;39.012;-7.064;2022-09-12T09:43:13;2.88;;;1.40;;
60239;SDS011;46102;39.012;-7.064;2022-09-12T09:45:22;1.58;;;1.48;;
60239;SDS011;46102;39.012;-7.064;2022-09-12T09:47:24;9.77;;;2.45;;
60239;SDS011;46102;39.012;-7.064;2022-09-12T09:49:28;5.65;;;1.90;;
60239;SDS011;46102;39.012;-7.064;2022-09-12T09:51:39;3.45;;;1.77;;
60239;SDS011;46102;39.012;-7.064;2022-09-12T09:53:49;11.45;;;1.88;;
60239;SDS011;46102;39.012;-7.064;2022-09-12T09:55:52;4.22;;;1.40;;
60239;SDS011;46102;39.012;-7.064;2022-09-12T09:57:55;9.00;;;1.90;;
60239;SDS011;46102;39.012;-7.064;2022-09-12T09:59:56;2.63;;;1.65;;
60239;SDS011;46102;39.012;-7.064;2022-09-12T10:02:01;10.73;;;1.80;;
60239;SDS011;46102;39.012;-7.064;2022-09-12T10:04:03;8.32;;;2.05;;
60239;SDS011;46102;39.012;-7.064;2022-09-12T10:06:20;8.10;;;1.70;;
60239;SDS011;46102;39.012;-7.064;2022-09-12T10:08:25;3.75;;;1.50;;
60239;SDS011;46102;39.012;-7.064;2022-09-12T10:10:28;8.27;;;2.10;;
60239;SDS011;46102;39.012;-7.064;2022-09-12T10:12:30;3.05;;;1.35;;
60239;SDS011;46102;39.012;-7.064;2022-09-12T10:14:32;4.22;;;1.67;;
60239;SDS011;46102;39.012;-7.064;2022-09-12T10:17:20;10.55;;;1.80;;
60239;SDS011;46102;39.012;-7.064;2022-09-12T10:21:41;3.85;;;1.40;;
60239;SDS011;46102;39.012;-7.064;2022-09-12T10:23:51;7.28;;;2.03;;
60239;SDS011;46102;39.012;-7.064;2022-09-12T10:25:59;7.75;;;1.50;;
60239;SDS011;46102;39.012;-7.064;2022-09-12T10:28:03;8.93;;;2.03;;
60239;SDS011;46102;39.012;-7.064;2022-09-12T10:30:06;2.45;;;1.50;;
60239;SDS011;46102;39.012;-7.064;2022-09-12T10:34:24;6.03;;;2.00;;
60239;SDS011;46102;39.012;-7.064;2022-09-12T10:36:36;11.10;;;2.40;;
60239;SDS011;46102;39.012;-7.064;2022-09-12T10:38:39;8.25;;;1.67;;
60239;SDS011;46102;39.012;-7.064;2022-09-12T10:41:05;8.32;;;1.88;;
60239;SDS011;46102;39.012;-7.064;2022-09-12T10:43:15;6.68;;;1.75;;
60239;SDS011;46102;39.012;-7.064;2022-09-12T10:47:32;6.63;;;1.55;;
60239;SDS011;46102;39.012;-7.064;2022-09-12T10:49:33;15.52;;;2.30;;
60239;SDS011;46102;39.012;-7.064;2022-09-12T10:51:39;7.25;;;1.83;;
60239;SDS011;46102;39.012;-7.064;2022-09-12T10:53:40;4.85;;;1.35;;
60239;SDS011;46102;39.012;-7.064;2022-09-12T10:55:51;2.95;;;1.38;;
60239;SDS011;46102;39.012;-7.064;2022-09-12T10:58:06;7.53;;;1.40;;
60239;SDS011;46102;39.012;-7.064;2022-09-12T11:00:16;20.92;;;2.20;;
60239;SDS011;46102;39.012;-7.064;2022-09-12T11:02:27;7.90;;;1.42;;
60239;SDS011;46102;39.012;-7.064;2022-09-12T11:14:39;7.20;;;1.60;;
60239;SDS011;46102;39.012;-7.064;2022-09-12T11:18:59;3.75;;;1.92;;
60239;SDS011;46102;39.012;-7.064;2022-09-12T11:23:16;5.38;;;1.33;;
60239;SDS011;46102;39.012;-7.064;2022-09-12T11:30:08;2.78;;;1.38;;
60239;SDS011;46102;39.012;-7.064;2022-09-12T11:36:57;3.72;;;1.25;;
60239;SDS011;46102;39.012;-7.064;2022-09-12T11:39:14;4.47;;;1.27;;
60239;SDS011;46102;39.012;-7.064;2022-09-12T11:41:21;4.15;;;1.42;;
60239;SDS011;46102;39.012;-7.064;2022-09-12T11:45:41;8.50;;;1.27;;
60239;SDS011;46102;39.012;-7.064;2022-09-12T11:47:46;8.13;;;1.17;;
60239;SDS011;46102;39.012;-7.064;2022-09-12T11:49:51;6.95;;;1.83;;
60239;SDS011;46102;39.012;-7.064;2022-09-12T11:51:56;13.65;;;1.40;;
60239;SDS011;46102;39.012;-7.064;2022-09-12T11:56:24;13.13;;;1.77;;
60239;SDS011;46102;39.012;-7.064;2022-09-12T11:58:25;7.03;;;1.15;;
60239;SDS011;46102;39.012;-7.064;2022-09-12T12:00:32;14.02;;;1.60;;
60239;SDS011;46102;39.012;-7.064;2022-09-12T12:05:18;5.55;;;1.70;;
60239;SDS011;46102;39.012;-7.064;2022-09-12T12:07:21;10.38;;;1.42;;
60239;SDS011;46102;39.012;-7.064;2022-09-12T12:09:22;11.95;;;1.58;;
60239;SDS011;46102;39.012;-7.064;2022-09-12T12:11:25;5.85;;;1.58;;
60239;SDS011;46102;39.012;-7.064;2022-09-12T12:13:28;9.32;;;1.67;;
60239;SDS011;46102;39.012;-7.064;2022-09-12T12:15:36;7.82;;;1.65;;
60239;SDS011;46102;39.012;-7.064;2022-09-12T12:17:38;6.85;;;1.60;;
60239;SDS011;46102;39.012;-7.064;2022-09-12T12:19:39;12.85;;;2.15;;
60239;SDS011;46102;39.012;-7.064;2022-09-12T12:21:40;4.38;;;1.42;;
60239;SDS011;46102;39.012;-7.064;2022-09-12T12:24:00;13.60;;;1.70;;
60239;SDS011;46102;39.012;-7.064;2022-09-12T12:26:08;9.10;;;1.37;;
60239;SDS011;46102;39.012;-7.064;2022-09-12T12:32:59;10.77;;;1.40;;
60239;SDS011;46102;39.012;-7.064;2022-09-12T12:35:35;10.73;;;1.42;;
60239;SDS011;46102;39.012;-7.064;2022-09-12T12:41:41;6.80;;;1.48;;
60239;SDS011;46102;39.012;-7.064;2022-09-12T12:43:44;6.15;;;1.48;;
60239;SDS011;46102;39.012;-7.064;2022-09-12T12:45:47;6.82;;;1.77;;
60239;SDS011;46102;39.012;-7.064;2022-09-12T12:48:07;11.13;;;1.80;;
60239;SDS011;46102;39.012;-7.064;2022-09-12T12:52:14;18.35;;;1.83;;
60239;SDS011;46102;39.012;-7.064;2022-09-12T12:56:39;5.97;;;1.70;;
60239;SDS011;46102;39.012;-7.064;2022-09-12T12:58:41;6.28;;;1.85;;
60239;SDS011;46102;39.012;-7.064;2022-09-12T13:00:42;10.48;;;1.77;;
60239;SDS011;46102;39.012;-7.064;2022-09-12T13:02:55;8.15;;;1.60;;
60239;SDS011;46102;39.012;-7.064;2022-09-12T13:05:16;10.07;;;1.73;;
60239;SDS011;46102;39.012;-7.064;2022-09-12T13:07:23;7.05;;;1.58;;
60239;SDS011;46102;39.012;-7.064;2022-09-12T13:09:37;15.20;;;1.88;;
60239;SDS011;46102;39.012;-7.064;2022-09-12T13:11:42;24.92;;;2.10;;
60239;SDS011;46102;39.012;-7.064;2022-09-12T13:13:50;4.85;;;1.35;;
60239;SDS011;46102;39.012;-7.064;2022-09-12T13:15:57;11.50;;;1.70;;
60239;SDS011;46102;39.012;-7.064;2022-09-12T13:17:58;10.70;;;1.33;;
60239;SDS011;46102;39.012;-7.064;2022-09-12T13:22:11;6.30;;;0.73;;
60239;SDS011;46102;39.012;-7.064;2022-09-12T13:24:14;15.40;;;1.70;;
60239;SDS011;46102;39.012;-7.064;2022-09-12T13:26:21;7.72;;;0.93;;
60239;SDS011;46102;39.012;-7.064;2022-09-12T13:28:24;11.98;;;1.00;;
60239;SDS011;46102;39.012;-7.064;2022-09-12T13:30:27;8.77;;;0.95;;
60239;SDS011;46102;39.012;-7.064;2022-09-12T13:32:30;16.05;;;1.17;;
60239;SDS011;46102;39.012;-7.064;2022-09-12T13:34:36;10.05;;;0.90;;
60239;SDS011;46102;39.012;-7.064;2022-09-12T13:41:37;8.18;;;1.27;;
60239;SDS011;46102;39.012;-7.064;2022-09-12T13:43:45;15.75;;;1.33;;
60239;SDS011;46102;39.012;-7.064;2022-09-12T13:45:47;13.93;;;1.48;;
60239;SDS011;46102;39.012;-7.064;2022-09-12T13:47:52;8.23;;;0.70;;
60239;SDS011;46102;39.012;-7.064;2022-09-12T13:49:57;6.90;;;0.60;;
60239;SDS011;46102;39.012;-7.064;2022-09-12T13:52:05;1.75;;;0.52;;
60239;SDS011;46102;39.012;-7.064;2022-09-12T13:54:06;3.83;;;0.65;;
60239;SDS011;46102;39.012;-7.064;2022-09-12T13:56:17;3.25;;;0.52;;
60239;SDS011;46102;39.012;-7.064;2022-09-12T14:00:21;8.93;;;0.80;;
60239;SDS011;46102;39.012;-7.064;2022-09-12T14:02:25;1.20;;;0.55;;
60239;SDS011;46102;39.012;-7.064;2022-09-12T14:04:28;8.82;;;1.08;;
60239;SDS011;46102;39.012;-7.064;2022-09-12T14:06:49;4.57;;;0.55;;
60239;SDS011;46102;39.012;-7.064;2022-09-12T14:08:51;2.47;;;0.60;;
60239;SDS011;46102;39.012;-7.064;2022-09-12T14:10:55;0.40;;;0.30;;
60239;SDS011;46102;39.012;-7.064;2022-09-12T14:12:56;0.68;;;0.60;;